sensor_id;sensor_type;location;lat;lon;timestamp;pressure;altitude;pressure_sealevel;temperature;humidity
74270;BME280;62754;48.252;11.654;2023-04-24T00:01:55;95273.34;;;10.39;92.39
74270;BME280;62754;48.252;11.654;2023-04-24T00:04:23;95270.56;;;10.23;92.56
74270;BME280;62754;48.252;11.654;2023-04-24T00:06:49;95262.56;;;10.26;92.68
74270;BME280;62754;48.252;11.654;2023-04-24T00:09:14;95255.38;;;10.20;93.84
74270;BME280;62754;48.252;11.654;2023-04-24T00:11:40;95257.16;;;10.10;93.11
74270;BME280;62754;48.252;11.654;2023-04-24T00:14:06;95255.81;;;10.16;92.92
74270;BME280;62754;48.252;11.654;2023-04-24T00:16:32;95256.22;;;10.11;92.91
74270;BME280;62754;48.252;11.654;2023-04-24T00:19:01;95253.09;;;10.17;93.41
74270;BME280;62754;48.252;11.654;2023-04-24T00:21:29;95254.72;;;10.18;92.86
74270;BME280;62754;48.252;11.654;2023-04-24T00:23:59;95257.84;;;10.22;92.93
74270;BME280;62754;48.252;11.654;2023-04-24T00:26:27;95256.34;;;10.19;93.18
74270;BME280;62754;48.252;11.654;2023-04-24T00:28:53;95242.38;;;10.12;92.60
74270;BME280;62754;48.252;11.654;2023-04-24T00:31:21;95245.38;;;10.17;93.18
74270;BME280;62754;48.252;11.654;2023-04-24T00:33:46;95244.56;;;10.17;92.75
74270;BME280;62754;48.252;11.654;2023-04-24T00:36:15;95247.66;;;10.20;92.75
74270;BME280;62754;48.252;11.654;2023-04-24T00:38:40;95254.88;;;10.07;92.72
74270;BME280;62754;48.252;11.654;2023-04-24T00:41:08;95252.72;;;10.02;92.83
74270;BME280;62754;48.252;11.654;2023-04-24T00:43:34;95243.38;;;10.01;92.32
74270;BME280;62754;48.252;11.654;2023-04-24T00:46:03;95255.03;;;10.15;92.49
74270;BME280;62754;48.252;11.654;2023-04-24T00:48:31;95252.44;;;10.15;92.03
74270;BME280;62754;48.252;11.654;2023-04-24T00:50:57;95245.50;;;10.25;91.36
74270;BME280;62754;48.252;11.654;2023-04-24T00:53:23;95254.97;;;10.25;91.51
74270;BME280;62754;48.252;11.654;2023-04-24T00:55:51;95256.34;;;10.19;90.79
74270;BME280;62754;48.252;11.654;2023-04-24T00:58:16;95254.72;;;10.18;90.98
74270;BME280;62754;48.252;11.654;2023-04-24T01:00:45;95247.81;;;10.09;90.39
74270;BME280;62754;48.252;11.654;2023-04-24T01:03:13;95245.81;;;10.03;89.92
74270;BME280;62754;48.252;11.654;2023-04-24T01:05:41;95243.53;;;10.00;90.17
74270;BME280;62754;48.252;11.654;2023-04-24T01:08:12;95243.59;;;10.08;89.30
74270;BME280;62754;48.252;11.654;2023-04-24T01:10:40;95248.25;;;9.95;90.54
74270;BME280;62754;48.252;11.654;2023-04-24T01:13:10;95238.47;;;10.08;89.25
74270;BME280;62754;48.252;11.654;2023-04-24T01:15:38;95239.84;;;9.93;88.84
74270;BME280;62754;48.252;11.654;2023-04-24T01:18:04;95239.72;;;9.94;89.14
74270;BME280;62754;48.252;11.654;2023-04-24T01:20:30;95235.16;;;9.88;88.43
74270;BME280;62754;48.252;11.654;2023-04-24T01:22:59;95238.50;;;9.89;88.38
74270;BME280;62754;48.252;11.654;2023-04-24T01:25:27;95242.34;;;9.75;88.90
74270;BME280;62754;48.252;11.654;2023-04-24T01:27:56;95234.50;;;9.77;88.68
74270;BME280;62754;48.252;11.654;2023-04-24T01:30:21;95227.19;;;9.63;90.04
74270;BME280;62754;48.252;11.654;2023-04-24T01:32:50;95239.13;;;9.64;89.92
74270;BME280;62754;48.252;11.654;2023-04-24T01:35:16;95236.56;;;9.64;90.43
74270;BME280;62754;48.252;11.654;2023-04-24T01:37:42;95232.06;;;9.66;89.05
74270;BME280;62754;48.252;11.654;2023-04-24T01:40:10;95230.59;;;9.63;89.32
74270;BME280;62754;48.252;11.654;2023-04-24T01:42:43;95222.09;;;9.53;90.09
74270;BME280;62754;48.252;11.654;2023-04-24T01:45:11;95224.25;;;9.48;90.78
74270;BME280;62754;48.252;11.654;2023-04-24T01:47:39;95228.03;;;9.44;89.48
74270;BME280;62754;48.252;11.654;2023-04-24T01:50:08;95226.00;;;9.47;88.98
74270;BME280;62754;48.252;11.654;2023-04-24T01:52:34;95229.00;;;9.52;88.76
74270;BME280;62754;48.252;11.654;2023-04-24T01:55:03;95233.41;;;9.70;88.03
74270;BME280;62754;48.252;11.654;2023-04-24T01:57:28;95230.06;;;9.60;88.33
74270;BME280;62754;48.252;11.654;2023-04-24T01:59:56;95231.56;;;9.52;87.96
74270;BME280;62754;48.252;11.654;2023-04-24T02:02:22;95225.72;;;9.50;88.43
74270;BME280;62754;48.252;11.654;2023-04-24T02:04:51;95228.16;;;9.52;86.89
74270;BME280;62754;48.252;11.654;2023-04-24T02:07:19;95232.50;;;9.51;88.03
74270;BME280;62754;48.252;11.654;2023-04-24T02:09:47;95226.16;;;9.46;88.58
74270;BME280;62754;48.252;11.654;2023-04-24T02:12:15;95222.09;;;9.43;87.85
74270;BME280;62754;48.252;11.654;2023-04-24T02:14:43;95222.09;;;9.53;87.53
74270;BME280;62754;48.252;11.654;2023-04-24T02:17:11;95221.28;;;9.52;86.68
74270;BME280;62754;48.252;11.654;2023-04-24T02:19:39;95225.34;;;9.45;87.27
74270;BME280;62754;48.252;11.654;2023-04-24T02:22:09;95220.44;;;9.42;87.85
74270;BME280;62754;48.252;11.654;2023-04-24T02:24:35;95217.47;;;9.47;87.37
74270;BME280;62754;48.252;11.654;2023-04-24T02:27:00;95221.81;;;9.37;87.45
74270;BME280;62754;48.252;11.654;2023-04-24T02:29:26;95223.72;;;9.35;86.30
74270;BME280;62754;48.252;11.654;2023-04-24T02:31:52;95224.00;;;9.32;87.50
74270;BME280;62754;48.252;11.654;2023-04-24T02:34:20;95219.09;;;9.38;86.65
74270;BME280;62754;48.252;11.654;2023-04-24T02:36:48;95219.25;;;9.27;86.82
74270;BME280;62754;48.252;11.654;2023-04-24T02:39:14;95223.03;;;9.23;87.52
74270;BME280;62754;48.252;11.654;2023-04-24T02:41:40;95222.50;;;9.20;87.31
74270;BME280;62754;48.252;11.654;2023-04-24T02:44:08;95216.28;;;9.22;87.83
74270;BME280;62754;48.252;11.654;2023-04-24T02:46:36;95215.75;;;9.28;87.28
74270;BME280;62754;48.252;11.654;2023-04-24T02:49:02;95213.56;;;9.24;86.90
74270;BME280;62754;48.252;11.654;2023-04-24T02:51:30;95219.94;;;9.20;87.92
74270;BME280;62754;48.252;11.654;2023-04-24T02:53:56;95213.97;;;9.19;87.77
74270;BME280;62754;48.252;11.654;2023-04-24T02:56:24;95217.91;;;9.23;87.68
74270;BME280;62754;48.252;11.654;2023-04-24T02:58:52;95215.59;;;9.20;88.41
74270;BME280;62754;48.252;11.654;2023-04-24T03:01:18;95219.13;;;9.09;88.92
74270;BME280;62754;48.252;11.654;2023-04-24T03:03:44;95214.13;;;9.18;88.19
74270;BME280;62754;48.252;11.654;2023-04-24T03:06:09;95214.09;;;9.27;88.15
74270;BME280;62754;48.252;11.654;2023-04-24T03:08:40;95221.69;;;9.09;89.13
74270;BME280;62754;48.252;11.654;2023-04-24T03:11:08;95210.22;;;9.14;89.53
74270;BME280;62754;48.252;11.654;2023-04-24T03:13:34;95208.44;;;9.14;89.92
74270;BME280;62754;48.252;11.654;2023-04-24T03:15:59;95211.53;;;9.08;89.71
74270;BME280;62754;48.252;11.654;2023-04-24T03:18:27;95208.97;;;9.08;90.28
74270;BME280;62754;48.252;11.654;2023-04-24T03:20:53;95216.84;;;9.06;90.02
74270;BME280;62754;48.252;11.654;2023-04-24T03:23:19;95214.81;;;9.10;90.40
74270;BME280;62754;48.252;11.654;2023-04-24T03:25:44;95215.06;;;9.17;90.09
74270;BME280;62754;48.252;11.654;2023-04-24T03:28:10;95221.97;;;9.06;90.65
74270;BME280;62754;48.252;11.654;2023-04-24T03:30:36;95219.94;;;9.10;90.91
74270;BME280;62754;48.252;11.654;2023-04-24T03:33:02;95227.13;;;9.06;90.71
74270;BME280;62754;48.252;11.654;2023-04-24T03:35:30;95221.56;;;9.01;90.57
74270;BME280;62754;48.252;11.654;2023-04-24T03:37:55;95226.03;;;9.09;90.86
74270;BME280;62754;48.252;11.654;2023-04-24T03:40:21;95231.84;;;9.11;90.61
74270;BME280;62754;48.252;11.654;2023-04-24T03:42:49;95227.78;;;9.08;90.50
74270;BME280;62754;48.252;11.654;2023-04-24T03:45:17;95232.53;;;9.03;91.08
74270;BME280;62754;48.252;11.654;2023-04-24T03:47:43;95233.84;;;9.07;91.18
74270;BME280;62754;48.252;11.654;2023-04-24T03:50:09;95231.03;;;9.11;91.09
74270;BME280;62754;48.252;11.654;2023-04-24T03:52:37;95230.50;;;9.07;90.91
74270;BME280;62754;48.252;11.654;2023-04-24T03:55:05;95226.72;;;9.11;91.63
74270;BME280;62754;48.252;11.654;2023-04-24T03:57:34;95231.97;;;9.09;91.33
74270;BME280;62754;48.252;11.654;2023-04-24T03:59:59;95231.16;;;9.09;92.15
74270;BME280;62754;48.252;11.654;2023-04-24T04:02:27;95235.88;;;8.94;92.33
74270;BME280;62754;48.252;11.654;2023-04-24T04:04:55;95222.91;;;8.96;92.56
74270;BME280;62754;48.252;11.654;2023-04-24T04:07:21;95218.88;;;9.03;92.40
74270;BME280;62754;48.252;11.654;2023-04-24T04:09:52;95216.28;;;9.03;92.49
74270;BME280;62754;48.252;11.654;2023-04-24T04:12:20;95216.16;;;8.95;92.33
74270;BME280;62754;48.252;11.654;2023-04-24T04:14:48;95216.16;;;8.95;92.71
74270;BME280;62754;48.252;11.654;2023-04-24T04:17:13;95208.44;;;8.95;92.26
74270;BME280;62754;48.252;11.654;2023-04-24T04:19:41;95213.03;;;9.01;92.32
74270;BME280;62754;48.252;11.654;2023-04-24T04:22:12;95218.88;;;9.03;91.67
74270;BME280;62754;48.252;11.654;2023-04-24T04:24:37;95215.47;;;9.02;92.01
74270;BME280;62754;48.252;11.654;2023-04-24T04:27:04;95224.66;;;9.05;92.52
74270;BME280;62754;48.252;11.654;2023-04-24T04:29:32;95220.06;;;9.08;92.28
74270;BME280;62754;48.252;11.654;2023-04-24T04:31:58;95222.78;;;9.07;91.79
74270;BME280;62754;48.252;11.654;2023-04-24T04:34:27;95221.16;;;9.06;91.97
74270;BME280;62754;48.252;11.654;2023-04-24T04:36:57;95226.56;;;9.13;91.58
74270;BME280;62754;48.252;11.654;2023-04-24T04:39:25;95225.50;;;9.15;91.10
74270;BME280;62754;48.252;11.654;2023-04-24T04:41:53;95230.22;;;9.29;90.76
74270;BME280;62754;48.252;11.654;2023-04-24T04:44:23;95236.31;;;9.19;90.76
74270;BME280;62754;48.252;11.654;2023-04-24T04:46:49;95235.63;;;9.17;90.06
74270;BME280;62754;48.252;11.654;2023-04-24T04:49:15;95240.34;;;9.31;89.90
74270;BME280;62754;48.252;11.654;2023-04-24T04:51:41;95234.28;;;9.22;89.49
74270;BME280;62754;48.252;11.654;2023-04-24T04:54:06;95237.53;;;9.34;89.02
74270;BME280;62754;48.252;11.654;2023-04-24T04:56:32;95241.84;;;9.24;89.54
74270;BME280;62754;48.252;11.654;2023-04-24T04:59:00;95248.22;;;9.29;89.36
74270;BME280;62754;48.252;11.654;2023-04-24T05:01:28;95249.69;;;9.32;88.59
74270;BME280;62754;48.252;11.654;2023-04-24T05:03:56;95248.75;;;9.33;87.96
74270;BME280;62754;48.252;11.654;2023-04-24T05:06:22;95243.22;;;9.37;89.16
74270;BME280;62754;48.252;11.654;2023-04-24T05:08:50;95248.06;;;9.40;88.87
74270;BME280;62754;48.252;11.654;2023-04-24T05:11:16;95254.03;;;9.41;89.27
74270;BME280;62754;48.252;11.654;2023-04-24T05:13:41;95252.00;;;9.25;87.91
74270;BME280;62754;48.252;11.654;2023-04-24T05:16:07;95250.78;;;9.29;88.10
74270;BME280;62754;48.252;11.654;2023-04-24T05:18:35;95253.22;;;9.40;88.33
74270;BME280;62754;48.252;11.654;2023-04-24T05:21:03;95262.69;;;9.40;88.16
74270;BME280;62754;48.252;11.654;2023-04-24T05:23:29;95259.31;;;9.49;88.02
74270;BME280;62754;48.252;11.654;2023-04-24T05:25:57;95259.72;;;9.44;87.54
74270;BME280;62754;48.252;11.654;2023-04-24T05:28:28;95260.91;;;9.50;87.03
74270;BME280;62754;48.252;11.654;2023-04-24T05:30:56;95259.97;;;9.51;87.77
74270;BME280;62754;48.252;11.654;2023-04-24T05:33:22;95262.41;;;9.52;87.24
74270;BME280;62754;48.252;11.654;2023-04-24T05:35:48;95274.44;;;9.62;85.91
74270;BME280;62754;48.252;11.654;2023-04-24T05:38:16;95265.78;;;9.43;85.57
74270;BME280;62754;48.252;11.654;2023-04-24T05:40:42;95267.16;;;9.28;87.19
74270;BME280;62754;48.252;11.654;2023-04-24T05:43:08;95274.59;;;9.41;86.37
74270;BME280;62754;48.252;11.654;2023-04-24T05:45:33;95262.28;;;9.44;86.24
74270;BME280;62754;48.252;11.654;2023-04-24T05:48:01;95271.88;;;9.62;85.76
74270;BME280;62754;48.252;11.654;2023-04-24T05:50:27;95264.31;;;9.60;84.88
74270;BME280;62754;48.252;11.654;2023-04-24T05:52:53;95265.50;;;9.66;85.32
74270;BME280;62754;48.252;11.654;2023-04-24T05:55:19;95268.72;;;9.87;85.29
74270;BME280;62754;48.252;11.654;2023-04-24T05:57:50;95275.09;;;9.73;84.52
74270;BME280;62754;48.252;11.654;2023-04-24T06:00:18;95276.47;;;9.68;85.91
74270;BME280;62754;48.252;11.654;2023-04-24T06:02:47;95283.38;;;9.77;85.00
74270;BME280;62754;48.252;11.654;2023-04-24T06:05:18;95285.41;;;9.64;84.56
74270;BME280;62754;48.252;11.654;2023-04-24T06:07:44;95269.16;;;9.63;84.06
74270;BME280;62754;48.252;11.654;2023-04-24T06:10:12;95283.38;;;9.77;84.86
74270;BME280;62754;48.252;11.654;2023-04-24T06:12:38;95279.97;;;9.86;83.56
74270;BME280;62754;48.252;11.654;2023-04-24T06:15:07;95283.88;;;9.90;84.51
74270;BME280;62754;48.252;11.654;2023-04-24T06:17:32;95283.88;;;9.90;83.09
74270;BME280;62754;48.252;11.654;2023-04-24T06:20:00;95275.03;;;10.12;82.30
74270;BME280;62754;48.252;11.654;2023-04-24T06:22:26;95278.41;;;10.12;82.13
74270;BME280;62754;48.252;11.654;2023-04-24T06:24:55;95280.72;;;10.25;81.59
74270;BME280;62754;48.252;11.654;2023-04-24T06:27:23;95282.78;;;10.48;81.96
74270;BME280;62754;48.252;11.654;2023-04-24T06:29:51;95283.56;;;10.59;80.75
74270;BME280;62754;48.252;11.654;2023-04-24T06:32:22;95287.75;;;10.60;81.03
74270;BME280;62754;48.252;11.654;2023-04-24T06:34:47;95287.28;;;10.74;80.27
74270;BME280;62754;48.252;11.654;2023-04-24T06:37:13;95290.13;;;10.80;80.47
74270;BME280;62754;48.252;11.654;2023-04-24T06:39:39;95279.00;;;10.80;80.55
74270;BME280;62754;48.252;11.654;2023-04-24T06:42:08;95299.63;;;10.70;78.79
74270;BME280;62754;48.252;11.654;2023-04-24T06:44:38;95287.00;;;10.77;79.10
74270;BME280;62754;48.252;11.654;2023-04-24T06:47:06;95296.97;;;10.89;79.15
74270;BME280;62754;48.252;11.654;2023-04-24T06:49:34;95297.66;;;10.64;78.75
74270;BME280;62754;48.252;11.654;2023-04-24T06:52:02;95291.19;;;10.78;78.18
74270;BME280;62754;48.252;11.654;2023-04-24T06:54:31;95297.34;;;10.67;79.71
74270;BME280;62754;48.252;11.654;2023-04-24T06:56:57;95297.13;;;10.88;79.42
74270;BME280;62754;48.252;11.654;2023-04-24T06:59:23;95307.00;;;10.92;77.25
74270;BME280;62754;48.252;11.654;2023-04-24T07:01:49;95310.13;;;11.14;77.35
74270;BME280;62754;48.252;11.654;2023-04-24T07:04:15;95307.63;;;11.22;76.64
74270;BME280;62754;48.252;11.654;2023-04-24T07:06:40;95310.00;;;11.33;76.12
74270;BME280;62754;48.252;11.654;2023-04-24T07:09:08;95307.00;;;11.37;75.47
74270;BME280;62754;48.252;11.654;2023-04-24T07:11:35;95305.22;;;11.56;75.92
74270;BME280;62754;48.252;11.654;2023-04-24T07:14:03;95301.31;;;11.69;73.43
74270;BME280;62754;48.252;11.654;2023-04-24T07:16:32;95299.69;;;11.68;74.90
74270;BME280;62754;48.252;11.654;2023-04-24T07:18:57;95298.03;;;12.03;75.27
74270;BME280;62754;48.252;11.654;2023-04-24T07:21:23;95296.88;;;12.49;72.04
74270;BME280;62754;48.252;11.654;2023-04-24T07:23:52;95307.28;;;12.65;72.81
74270;BME280;62754;48.252;11.654;2023-04-24T07:26:18;95303.50;;;12.25;72.61
74270;BME280;62754;48.252;11.654;2023-04-24T07:28:43;95297.91;;;12.30;72.51
74270;BME280;62754;48.252;11.654;2023-04-24T07:31:13;95316.69;;;12.40;70.93
74270;BME280;62754;48.252;11.654;2023-04-24T07:33:41;95315.63;;;12.25;71.00
74270;BME280;62754;48.252;11.654;2023-04-24T07:36:07;95312.75;;;12.28;70.69
74270;BME280;62754;48.252;11.654;2023-04-24T07:38:33;95315.78;;;12.49;70.01
74270;BME280;62754;48.252;11.654;2023-04-24T07:40:58;95331.53;;;12.38;69.52
74270;BME280;62754;48.252;11.654;2023-04-24T07:43:26;95330.19;;;12.60;70.42
74270;BME280;62754;48.252;11.654;2023-04-24T07:45:54;95322.66;;;12.74;70.10
74270;BME280;62754;48.252;11.654;2023-04-24T07:48:22;95330.72;;;12.71;69.35
74270;BME280;62754;48.252;11.654;2023-04-24T07:50:48;95323.63;;;12.14;68.39
74270;BME280;62754;48.252;11.654;2023-04-24T07:53:16;95327.75;;;12.07;69.38
74270;BME280;62754;48.252;11.654;2023-04-24T07:55:46;95337.44;;;12.05;70.00
74270;BME280;62754;48.252;11.654;2023-04-24T07:58:14;95344.88;;;11.90;70.25
74270;BME280;62754;48.252;11.654;2023-04-24T08:00:43;95343.59;;;11.59;71.47
74270;BME280;62754;48.252;11.654;2023-04-24T08:03:11;95346.06;;;11.60;71.02
74270;BME280;62754;48.252;11.654;2023-04-24T08:05:38;95352.25;;;11.67;70.18
74270;BME280;62754;48.252;11.654;2023-04-24T08:08:07;95341.72;;;11.78;69.48
74270;BME280;62754;48.252;11.654;2023-04-24T08:10:37;95339.28;;;11.94;70.08
74270;BME280;62754;48.252;11.654;2023-04-24T08:13:03;95350.63;;;12.02;68.57
74270;BME280;62754;48.252;11.654;2023-04-24T08:15:34;95349.50;;;12.22;68.47
74270;BME280;62754;48.252;11.654;2023-04-24T08:18:00;95345.91;;;11.97;69.27
74270;BME280;62754;48.252;11.654;2023-04-24T08:20:28;95345.31;;;12.03;69.79
74270;BME280;62754;48.252;11.654;2023-04-24T08:22:54;95353.88;;;12.04;70.20
74270;BME280;62754;48.252;11.654;2023-04-24T08:25:20;95354.19;;;11.83;69.27
74270;BME280;62754;48.252;11.654;2023-04-24T08:27:48;95362.31;;;11.43;71.55
74270;BME280;62754;48.252;11.654;2023-04-24T08:30:14;95354.66;;;11.33;71.89
74270;BME280;62754;48.252;11.654;2023-04-24T08:32:42;95357.53;;;11.30;71.12
74270;BME280;62754;48.252;11.654;2023-04-24T08:35:08;95362.94;;;11.10;71.17
74270;BME280;62754;48.252;11.654;2023-04-24T08:37:38;95358.00;;;11.16;71.94
74270;BME280;62754;48.252;11.654;2023-04-24T08:40:13;95361.78;;;11.22;72.26
74270;BME280;62754;48.252;11.654;2023-04-24T08:42:39;95372.84;;;11.05;73.18
74270;BME280;62754;48.252;11.654;2023-04-24T08:45:05;95368.88;;;10.92;72.66
74270;BME280;62754;48.252;11.654;2023-04-24T08:47:31;95387.63;;;10.85;69.55
74270;BME280;62754;48.252;11.654;2023-04-24T08:50:01;95386.81;;;10.75;69.51
74270;BME280;62754;48.252;11.654;2023-04-24T08:52:27;95393.00;;;10.91;69.30
74270;BME280;62754;48.252;11.654;2023-04-24T08:54:53;95380.66;;;10.85;69.00
74270;BME280;62754;48.252;11.654;2023-04-24T08:57:22;95389.72;;;10.99;67.99
74270;BME280;62754;48.252;11.654;2023-04-24T08:59:53;95394.25;;;11.15;66.38
74270;BME280;62754;48.252;11.654;2023-04-24T09:02:21;95396.41;;;11.19;66.18
74270;BME280;62754;48.252;11.654;2023-04-24T09:04:53;95397.38;;;11.36;65.55
74270;BME280;62754;48.252;11.654;2023-04-24T09:07:19;95410.75;;;11.49;64.62
74270;BME280;62754;48.252;11.654;2023-04-24T09:09:47;95404.06;;;11.56;65.95
74270;BME280;62754;48.252;11.654;2023-04-24T09:12:16;95418.41;;;11.41;64.26
74270;BME280;62754;48.252;11.654;2023-04-24T09:14:42;95409.53;;;11.71;65.53
74270;BME280;62754;48.252;11.654;2023-04-24T09:17:08;95408.19;;;11.49;64.57
74270;BME280;62754;48.252;11.654;2023-04-24T09:19:39;95413.47;;;11.47;63.20
74270;BME280;62754;48.252;11.654;2023-04-24T09:22:06;95404.66;;;11.68;60.97
74270;BME280;62754;48.252;11.654;2023-04-24T09:24:34;95391.53;;;11.61;61.33
74270;BME280;62754;48.252;11.654;2023-04-24T09:27:00;95403.38;;;11.99;62.42
74270;BME280;62754;48.252;11.654;2023-04-24T09:29:26;95392.81;;;12.28;60.50
74270;BME280;62754;48.252;11.654;2023-04-24T09:31:53;95399.06;;;12.69;59.03
74270;BME280;62754;48.252;11.654;2023-04-24T09:34:27;95408.81;;;12.83;58.43
74270;BME280;62754;48.252;11.654;2023-04-24T09:36:53;95406.16;;;12.67;58.46
74270;BME280;62754;48.252;11.654;2023-04-24T09:39:21;95411.91;;;12.35;58.30
74270;BME280;62754;48.252;11.654;2023-04-24T09:44:20;95414.44;;;12.27;57.47
74270;BME280;62754;48.252;11.654;2023-04-24T09:46:53;95410.16;;;12.35;58.35
74270;BME280;62754;48.252;11.654;2023-04-24T09:49:29;95415.69;;;12.66;56.73
74270;BME280;62754;48.252;11.654;2023-04-24T09:52:03;95416.03;;;12.97;56.95
74270;BME280;62754;48.252;11.654;2023-04-24T09:54:31;95416.13;;;12.87;56.73
74270;BME280;62754;48.252;11.654;2023-04-24T09:56:57;95412.81;;;12.69;55.58
74270;BME280;62754;48.252;11.654;2023-04-24T09:59:25;95410.47;;;12.58;55.53
74270;BME280;62754;48.252;11.654;2023-04-24T10:01:50;95412.94;;;12.68;56.50
74270;BME280;62754;48.252;11.654;2023-04-24T10:06:49;95402.59;;;12.94;56.15
74270;BME280;62754;48.252;11.654;2023-04-24T10:09:20;95411.97;;;13.28;55.92
74270;BME280;62754;48.252;11.654;2023-04-24T10:11:48;95397.31;;;13.03;56.26
74270;BME280;62754;48.252;11.654;2023-04-24T10:14:15;95401.38;;;13.40;57.19
74270;BME280;62754;48.252;11.654;2023-04-24T10:16:42;95401.69;;;13.45;56.57
74270;BME280;62754;48.252;11.654;2023-04-24T10:19:10;95402.41;;;13.55;54.47
74270;BME280;62754;48.252;11.654;2023-04-24T10:21:36;95390.00;;;13.74;52.57
74270;BME280;62754;48.252;11.654;2023-04-24T10:24:05;95399.84;;;13.79;53.46
74270;BME280;62754;48.252;11.654;2023-04-24T10:26:31;95405.38;;;13.92;53.30
74270;BME280;62754;48.252;11.654;2023-04-24T10:28:59;95398.75;;;13.90;54.89
74270;BME280;62754;48.252;11.654;2023-04-24T10:31:27;95396.47;;;13.95;54.09
74270;BME280;62754;48.252;11.654;2023-04-24T10:33:58;95400.03;;;14.02;52.58
74270;BME280;62754;48.252;11.654;2023-04-24T10:36:29;95403.78;;;14.07;52.11
74270;BME280;62754;48.252;11.654;2023-04-24T10:38:59;95390.97;;;14.06;51.93
74270;BME280;62754;48.252;11.654;2023-04-24T10:41:28;95389.53;;;14.60;51.82
74270;BME280;62754;48.252;11.654;2023-04-24T10:44:06;95389.47;;;14.92;51.57
74270;BME280;62754;48.252;11.654;2023-04-24T10:46:32;95400.66;;;14.93;52.17
74270;BME280;62754;48.252;11.654;2023-04-24T10:48:57;95405.44;;;15.67;48.98
74270;BME280;62754;48.252;11.654;2023-04-24T10:51:46;95394.94;;;15.13;49.96
74270;BME280;62754;48.252;11.654;2023-04-24T10:54:28;95392.44;;;14.65;51.86
74270;BME280;62754;48.252;11.654;2023-04-24T10:59:45;95399.25;;;14.01;53.81
74270;BME280;62754;48.252;11.654;2023-04-24T11:02:14;95446.91;;;12.99;61.38
74270;BME280;62754;48.252;11.654;2023-04-24T11:04:40;95432.06;;;12.14;64.18
74270;BME280;62754;48.252;11.654;2023-04-24T11:07:05;95436.59;;;11.39;66.70
74270;BME280;62754;48.252;11.654;2023-04-24T11:09:31;95440.56;;;10.97;71.07
74270;BME280;62754;48.252;11.654;2023-04-24T11:14:30;95435.63;;;10.76;71.95
74270;BME280;62754;48.252;11.654;2023-04-24T11:16:58;95441.97;;;10.91;73.11
74270;BME280;62754;48.252;11.654;2023-04-24T11:19:26;95431.53;;;10.83;72.52
74270;BME280;62754;48.252;11.654;2023-04-24T11:27:17;95426.63;;;12.86;67.23
74270;BME280;62754;48.252;11.654;2023-04-24T11:29:49;95435.09;;;12.70;63.11
74270;BME280;62754;48.252;11.654;2023-04-24T11:32:33;95449.81;;;12.70;65.72
74270;BME280;62754;48.252;11.654;2023-04-24T11:35:00;95452.94;;;12.81;66.08
74270;BME280;62754;48.252;11.654;2023-04-24T11:37:27;95436.75;;;12.79;64.35
74270;BME280;62754;48.252;11.654;2023-04-24T11:39:56;95443.75;;;12.61;64.94
74270;BME280;62754;48.252;11.654;2023-04-24T11:42:24;95455.66;;;12.36;65.66
74270;BME280;62754;48.252;11.654;2023-04-24T11:44:54;95454.56;;;12.39;66.61
74270;BME280;62754;48.252;11.654;2023-04-24T11:47:30;95454.66;;;12.29;64.03
74270;BME280;62754;48.252;11.654;2023-04-24T11:49:58;95447.41;;;12.33;64.92
74270;BME280;62754;48.252;11.654;2023-04-24T11:52:26;95442.88;;;12.53;59.08
74270;BME280;62754;48.252;11.654;2023-04-24T11:54:54;95439.03;;;12.57;60.14
74270;BME280;62754;48.252;11.654;2023-04-24T11:57:26;95441.53;;;12.92;59.26
74270;BME280;62754;48.252;11.654;2023-04-24T11:59:54;95434.91;;;13.57;58.21
74270;BME280;62754;48.252;11.654;2023-04-24T12:02:24;95437.13;;;15.54;52.15
74270;BME280;62754;48.252;11.654;2023-04-24T12:04:53;95427.75;;;16.07;49.03
74270;BME280;62754;48.252;11.654;2023-04-24T12:07:19;95420.47;;;16.71;50.36
74270;BME280;62754;48.252;11.654;2023-04-24T12:09:54;95419.66;;;16.70;46.13
74270;BME280;62754;48.252;11.654;2023-04-24T12:12:24;95424.03;;;17.22;47.59
74270;BME280;62754;48.252;11.654;2023-04-24T12:14:58;95424.34;;;16.89;47.50
74270;BME280;62754;48.252;11.654;2023-04-24T12:17:29;95409.41;;;16.46;48.56
74270;BME280;62754;48.252;11.654;2023-04-24T12:20:00;95418.34;;;16.29;49.83
74270;BME280;62754;48.252;11.654;2023-04-24T12:22:26;95410.53;;;15.44;52.16
74270;BME280;62754;48.252;11.654;2023-04-24T12:24:56;95405.50;;;15.82;51.50
74270;BME280;62754;48.252;11.654;2023-04-24T12:27:25;95406.50;;;16.03;50.77
74270;BME280;62754;48.252;11.654;2023-04-24T12:29:58;95407.09;;;16.88;46.51
74270;BME280;62754;48.252;11.654;2023-04-24T12:32:24;95405.31;;;17.62;45.86
74270;BME280;62754;48.252;11.654;2023-04-24T12:34:51;95409.19;;;17.51;42.21
74270;BME280;62754;48.252;11.654;2023-04-24T12:37:17;95399.75;;;17.50;41.31
74270;BME280;62754;48.252;11.654;2023-04-24T12:42:27;95406.50;;;17.15;41.46
74270;BME280;62754;48.252;11.654;2023-04-24T12:45:00;95405.81;;;17.22;40.83
74270;BME280;62754;48.252;11.654;2023-04-24T12:47:30;95385.03;;;17.93;40.42
74270;BME280;62754;48.252;11.654;2023-04-24T12:50:00;95391.69;;;18.17;40.46
74270;BME280;62754;48.252;11.654;2023-04-24T12:52:29;95386.38;;;18.74;39.98
74270;BME280;62754;48.252;11.654;2023-04-24T12:54:57;95403.94;;;17.81;41.36
74270;BME280;62754;48.252;11.654;2023-04-24T12:57:24;95420.34;;;16.18;43.73
74270;BME280;62754;48.252;11.654;2023-04-24T12:59:50;95419.84;;;15.31;45.96
74270;BME280;62754;48.252;11.654;2023-04-24T13:02:16;95420.97;;;14.49;47.58
74270;BME280;62754;48.252;11.654;2023-04-24T13:04:44;95417.94;;;15.94;42.49
74270;BME280;62754;48.252;11.654;2023-04-24T13:07:10;95408.09;;;15.82;42.64
74270;BME280;62754;48.252;11.654;2023-04-24T13:09:35;95415.28;;;15.33;44.88
74270;BME280;62754;48.252;11.654;2023-04-24T13:12:06;95422.31;;;15.16;43.71
74270;BME280;62754;48.252;11.654;2023-04-24T13:14:32;95430.31;;;15.84;44.31
74270;BME280;62754;48.252;11.654;2023-04-24T13:17:00;95422.56;;;14.82;45.33